Time;durP1;ratioP1;P1;durP2;ratioP2;P2;SDS_P1;SDS_P2;PMS_P1;PMS_P2;Temp;Humidity;BMP_temperature;BMP_pressure;BME280_temperature;BME280_humidity;BME280_pressure;Samples;Min_cycle;Max_cycle;Signal;HPM_P1;HPM_P2
2023/05/23 00:04:41;;;;;;;7.72;3.95;;;;;;;9.96;100.00;95248.19;4980526;26;20058;-78
2023/05/23 00:07:07;;;;;;;5.28;4.78;;;;;;;9.63;100.00;95199.16;4944900;28;20061;-81
2023/05/23 00:09:33;;;;;;;4.35;4.00;;;;;;;9.59;100.00;95177.97;4961780;28;20031;-82
2023/05/23 00:11:59;;;;;;;6.75;4.47;;;;;;;9.50;100.00;95160.84;4995228;28;20082;-81
2023/05/23 00:14:25;;;;;;;5.50;4.15;;;;;;;9.54;100.00;95169.88;4953068;28;20060;-81
2023/05/23 00:16:55;;;;;;;5.47;4.20;;;;;;;9.53;100.00;95176.81;4952099;28;20031;-82
2023/05/23 00:19:22;;;;;;;6.63;4.57;;;;;;;9.82;100.00;95228.13;4949857;29;20039;-81
2023/05/23 00:21:48;;;;;;;6.13;3.92;;;;;;;9.45;100.00;95194.09;4936315;29;20035;-81
2023/05/23 00:24:17;;;;;;;4.55;3.80;;;;;;;9.37;100.00;95202.66;4967274;29;20291;-81
2023/05/23 00:26:43;;;;;;;;;;;;;;;9.60;100.00;95243.44;4944022;29;20031;-81
2023/05/23 00:29:15;;;;;;;8.75;4.18;;;;;;;9.59;100.00;95246.97;4937962;29;19978;-82
2023/05/23 00:31:47;;;;;;;5.65;4.60;;;;;;;9.44;100.00;95203.63;4945115;29;20089;-82
2023/05/23 00:34:16;;;;;;;5.18;4.72;;;;;;;9.87;100.00;95246.56;4928004;29;20039;-82
2023/05/23 00:36:49;;;;;;;4.53;4.13;;;;;;;9.62;100.00;95207.88;4928550;29;20042;-82
2023/05/23 00:41:56;;;;;;;8.07;3.97;;;;;;;9.65;100.00;95217.91;4978036;26;20048;-83
2023/05/23 00:44:23;;;;;;;4.97;3.83;;;;;;;9.90;100.00;95273.88;5030765;28;20038;-81
2023/05/23 00:46:56;;;;;;;4.47;4.05;;;;;;;9.84;100.00;95233.94;4990918;28;20057;-82
2023/05/23 00:52:06;;;;;;;4.65;4.25;;;;;;;9.49;100.00;95183.28;5076268;23;20053;-81
2023/05/23 00:54:33;;;;;;;4.72;4.30;;;;;;;9.51;100.00;95227.06;5005360;28;20049;-82
2023/05/23 00:59:45;;;;;;;6.90;4.72;;;;;;;9.71;100.00;95227.59;5232038;23;20076;-82
2023/05/23 01:05:24;;;;;;;5.03;3.88;;;;;;;9.44;100.00;95169.22;4997809;28;20476;-82
2023/05/23 01:07:55;;;;;;;8.63;4.18;;;;;;;9.71;100.00;95207.75;5009444;28;20056;-82
2023/05/23 01:10:26;;;;;;;5.22;4.22;;;;;;;9.56;100.00;95211.09;5012817;28;20034;-82
2023/05/23 01:16:14;;;;;;;5.75;5.35;;;;;;;9.62;100.00;95213.06;5209679;23;20041;-82
2023/05/23 01:19:07;;;;;;;5.38;4.40;;;;;;;9.48;100.00;95183.44;5063768;28;20062;-83
2023/05/23 01:21:38;;;;;;;6.63;5.47;;;;;;;9.45;100.00;95179.41;5018542;28;20040;-83
2023/05/23 01:27:49;;;;;;;5.93;4.60;;;;;;;9.51;100.00;95217.53;5419392;23;20048;-83
2023/05/23 01:30:18;;;;;;;6.50;4.88;;;;;;;9.35;100.00;95178.72;5032470;28;20596;-83
2023/05/23 01:32:49;;;;;;;6.47;5.65;;;;;;;9.29;100.00;95160.44;5002956;28;20041;-83
2023/05/23 01:35:35;;;;;;;7.05;6.22;;;;;;;9.63;100.00;95204.34;4988452;28;20014;-83
2023/05/23 01:38:02;;;;;;;7.72;5.75;;;;;;;9.45;100.00;95179.41;5029917;28;20034;-82
2023/05/23 01:40:31;;;;;;;6.70;6.10;;;;;;;9.41;100.00;95185.84;5025871;28;20034;-82
2023/05/23 01:45:54;;;;;;;6.07;5.47;;;;;;;9.56;100.00;95224.84;5050523;28;20075;-80
2023/05/23 01:48:25;;;;;;;;;;;;;;;9.67;100.00;95228.88;5021178;28;20060;-82
2023/05/23 01:50:53;;;;;;;6.25;5.70;;;;;;;9.63;100.00;95201.75;5023685;28;20012;-82
2023/05/23 01:53:27;;;;;;;7.05;6.43;;;;;;;9.53;100.00;95174.22;5012153;28;20089;-83
2023/05/23 02:01:03;;;;;;;10.13;9.15;;;;;;;9.63;100.00;95181.06;5091729;23;20061;-80
2023/05/23 02:03:29;;;;;;;9.50;8.65;;;;;;;9.80;100.00;95222.28;4996212;28;20478;-79
2023/05/23 02:05:55;;;;;;;10.52;9.40;;;;;;;9.70;100.00;95219.03;5000917;28;20058;-81
2023/05/23 02:08:20;;;;;;;10.73;7.82;;;;;;;9.95;100.00;95269.06;5002934;28;20052;-80
2023/05/23 02:10:46;;;;;;;9.50;8.60;;;;;;;9.67;100.00;95226.31;5016824;28;20033;-80
2023/05/23 02:13:13;;;;;;;11.13;8.98;;;;;;;10.02;100.00;95270.84;5009561;28;20034;-81
2023/05/23 02:15:39;;;;;;;9.75;8.82;;;;;;;10.00;100.00;95262.44;5017135;28;20025;-82
2023/05/23 02:18:06;;;;;;;10.65;9.55;;;;;;;10.00;100.00;95254.69;5020167;28;20041;-82
2023/05/23 02:20:34;;;;;;;10.88;9.05;;;;;;;10.00;100.00;95246.09;4997116;28;20034;-82
2023/05/23 02:23:18;;;;;;;9.40;8.48;;;;;;;10.13;100.00;95264.56;4970677;28;20054;-82
2023/05/23 02:25:44;;;;;;;11.05;8.40;;;;;;;10.06;100.00;95264.38;4998660;28;20037;-80
2023/05/23 02:28:11;;;;;;;9.45;8.60;;;;;;;9.93;100.00;95248.50;4992258;28;20022;-79
2023/05/23 02:30:37;;;;;;;8.60;7.90;;;;;;;10.18;100.00;95292.59;4990336;28;20478;-80
2023/05/23 02:33:06;;;;;;;11.32;9.15;;;;;;;10.25;100.00;95291.75;5000666;28;20094;-81
2023/05/23 02:35:38;;;;;;;13.77;8.40;;;;;;;10.15;100.00;95247.09;5000188;28;20050;-83
2023/05/23 02:38:05;;;;;;;11.57;9.10;;;;;;;10.18;100.00;95243.41;4979909;28;20097;-81
2023/05/23 02:40:31;;;;;;;9.48;8.50;;;;;;;10.25;100.00;95247.75;4985210;28;20034;-84
2023/05/23 02:42:56;;;;;;;9.68;8.88;;;;;;;10.19;100.00;95242.41;4978992;28;20034;-81
2023/05/23 02:45:23;;;;;;;10.52;9.45;;;;;;;10.13;100.00;95243.03;4997431;28;20025;-81
2023/05/23 02:47:50;;;;;;;10.82;9.82;;;;;;;10.30;100.00;95278.34;4991080;28;20038;-82
2023/05/23 02:50:17;;;;;;;10.52;8.90;;;;;;;10.28;100.00;95259.56;5000881;28;20021;-82
2023/05/23 02:52:46;;;;;;;11.35;8.88;;;;;;;10.35;100.00;95266.53;5020555;28;20021;-82
2023/05/23 02:55:15;;;;;;;10.73;9.73;;;;;;;10.40;100.00;95272.03;4991416;28;20033;-81
2023/05/23 02:57:40;;;;;;;11.38;10.25;;;;;;;10.54;100.00;95275.75;5021645;28;20026;-81
2023/05/23 03:00:08;;;;;;;14.02;10.70;;;;;;;10.57;100.00;95285.78;5005055;28;20073;-82
2023/05/23 03:02:34;;;;;;;11.80;10.73;;;;;;;10.48;100.00;95284.19;5003389;28;20107;-82
2023/05/23 03:04:59;;;;;;;10.15;9.20;;;;;;;10.56;100.00;95282.38;5113522;23;20057;-81
2023/05/23 03:07:47;;;;;;;10.25;9.18;;;;;;;10.64;100.00;95291.94;5055327;28;20044;-83
2023/05/23 03:10:13;;;;;;;10.20;9.18;;;;;;;10.43;100.00;95279.50;5019747;28;20025;-82
2023/05/23 03:12:42;;;;;;;12.95;11.07;;;;;;;10.59;100.00;95312.34;4998602;28;20037;-81
2023/05/23 03:15:09;;;;;;;13.27;11.85;;;;;;;10.33;100.00;95291.78;4988164;28;20041;-82
2023/05/23 03:17:39;;;;;;;14.93;12.10;;;;;;;10.35;100.00;95297.59;5009425;28;20034;-82
2023/05/23 03:20:14;;;;;;;16.95;9.75;;;;;;;10.64;100.00;95340.34;5011940;28;20043;-82
2023/05/23 03:22:44;;;;;;;11.10;9.98;;;;;;;10.54;100.00;95320.59;4996781;28;20065;-82
2023/05/23 03:25:17;;;;;;;11.80;10.73;;;;;;;10.58;100.00;95311.53;5032377;28;20037;-82
2023/05/23 03:27:57;;;;;;;12.52;10.18;;;;;;;10.63;100.00;95307.66;5013555;28;20053;-82
2023/05/23 03:30:25;;;;;;;24.52;15.30;;;;;;;10.46;100.00;95305.06;5015848;28;20034;-82
2023/05/23 03:32:53;;;;;;;16.90;12.57;;;;;;;10.51;100.00;95309.75;4981661;28;20023;-82
2023/05/23 03:35:19;;;;;;;17.08;12.15;;;;;;;10.54;100.00;95317.19;5007021;28;20038;-82
2023/05/23 03:37:49;;;;;;;24.63;13.15;;;;;;;10.72;100.00;95354.13;5004103;28;20048;-82
2023/05/23 03:40:17;;;;;;;23.20;14.88;;;;;;;10.61;100.00;95349.25;5035544;28;20041;-82
2023/05/23 03:42:52;;;;;;;19.15;12.38;;;;;;;10.69;100.00;95346.66;5012705;28;20087;-82
2023/05/23 03:45:44;;;;;;;20.08;11.82;;;;;;;11.03;100.00;95393.97;5004134;28;20029;-82
2023/05/23 03:48:15;;;;;;;46.90;19.42;;;;;;;10.67;100.00;95363.34;5035354;28;20025;-82
2023/05/23 03:50:48;;;;;;;37.78;17.10;;;;;;;10.61;100.00;95367.38;5031703;28;20064;-82
2023/05/23 03:53:17;;;;;;;30.38;14.32;;;;;;;10.75;100.00;95384.06;5035292;28;20098;-82
2023/05/23 03:55:52;;;;;;;74.82;19.75;;;;;;;10.68;100.00;95399.44;5006940;28;20034;-81
2023/05/23 03:58:20;;;;;;;65.38;18.58;;;;;;;10.81;100.00;95428.28;4997952;28;20014;-82
2023/05/23 04:00:51;;;;;;;33.08;16.13;;;;;;;10.87;100.00;95408.69;5033924;28;20028;-81
2023/05/23 04:03:20;;;;;;;27.23;15.18;;;;;;;10.98;100.00;95414.34;5021170;28;20078;-83
2023/05/23 04:16:06;;;;;;;88.30;23.85;;;;;;;11.22;100.00;95469.78;5485604;23;20065;-79
2023/05/23 04:18:37;;;;;;;127.95;24.70;;;;;;;11.10;100.00;95471.88;5021681;28;20038;-81
2023/05/23 05:52:22;;;;;;;29.65;16.90;;;;;;;12.34;100.00;95120.75;5544639;23;20076;-81
2023/05/23 05:58:09;;;;;;;21.10;16.50;;;;;;;12.60;100.00;95174.91;5427624;23;20091;-81
2023/05/23 06:00:40;;;;;;;18.80;15.57;;;;;;;13.25;100.00;95223.63;5019691;28;20036;-80
2023/05/23 06:03:09;;;;;;;20.67;15.05;;;;;;;13.27;100.00;95183.44;5029837;28;20036;-80
2023/05/23 06:05:36;;;;;;;21.00;14.95;;;;;;;13.41;100.00;95161.81;5009491;28;20039;-78
2023/05/23 06:08:02;;;;;;;18.15;14.18;;;;;;;13.34;100.00;95119.31;5027980;28;20578;-78
2023/05/23 06:10:28;;;;;;;18.45;13.45;;;;;;;13.47;100.00;95118.63;5020196;28;20059;-77
2023/05/23 06:12:54;;;;;;;17.05;13.57;;;;;;;13.44;100.00;95113.81;5021906;28;20107;-78
2023/05/23 06:15:19;;;;;;;19.63;14.75;;;;;;;13.06;100.00;95074.94;5025234;28;20051;-77
2023/05/23 06:17:45;;;;;;;18.65;15.00;;;;;;;13.44;100.00;95073.00;5013680;28;20459;-77
2023/05/23 06:20:11;;;;;;;18.60;15.65;;;;;;;13.51;100.00;95101.69;5017222;28;20117;-76
2023/05/23 06:22:37;;;;;;;19.10;15.18;;;;;;;13.46;100.00;95111.81;5018644;28;20136;-79
2023/05/23 06:25:03;;;;;;;17.10;14.63;;;;;;;13.41;100.00;95133.19;5020458;28;20029;-78
2023/05/23 06:27:28;;;;;;;20.23;15.70;;;;;;;13.35;100.00;95130.53;5018306;28;20039;-78
2023/05/23 06:29:54;;;;;;;21.60;16.02;;;;;;;13.41;100.00;95150.59;5021102;28;20036;-78
2023/05/23 06:32:19;;;;;;;19.30;15.77;;;;;;;13.55;100.00;95167.97;5015872;28;20032;-76
2023/05/23 06:34:45;;;;;;;28.70;17.48;;;;;;;13.27;100.00;95139.22;5020372;28;20549;-76
2023/05/23 06:37:10;;;;;;;18.10;14.43;;;;;;;13.61;100.00;95136.00;5020662;28;20025;-79
2023/05/23 06:39:36;;;;;;;19.20;14.55;;;;;;;13.78;100.00;95110.53;5017508;28;20487;-78
2023/05/23 06:42:01;;;;;;;23.38;17.60;;;;;;;13.78;100.00;95103.53;5013011;28;20116;-75
2023/05/23 06:44:27;;;;;;;20.52;16.05;;;;;;;13.69;100.00;95115.06;5003595;28;20100;-76
2023/05/23 06:46:57;;;;;;;25.83;18.30;;;;;;;13.86;100.00;95132.06;5011475;28;20029;-76
2023/05/23 06:49:23;;;;;;;21.42;15.98;;;;;;;13.77;100.00;95108.94;5018606;28;20033;-76
2023/05/23 06:51:49;;;;;;;20.02;17.65;;;;;;;13.71;100.00;95123.47;5000129;28;20083;-75
2023/05/23 06:54:15;;;;;;;43.28;21.33;;;;;;;13.24;100.00;95110.16;5019220;28;20493;-77
2023/05/23 06:56:40;;;;;;;20.63;17.13;;;;;;;13.51;100.00;95164.13;5019424;28;20021;-75
2023/05/23 06:59:06;;;;;;;25.48;18.90;;;;;;;13.82;100.00;95182.88;5020624;28;20045;-76
2023/05/23 07:01:31;;;;;;;22.25;17.65;;;;;;;13.97;100.00;95160.19;5018334;28;20029;-76
2023/05/23 07:03:56;;;;;;;20.45;15.63;;;;;;;14.17;100.00;95126.50;5020459;28;20067;-75
2023/05/23 07:06:22;;;;;;;19.92;17.02;;;;;;;14.28;100.00;95089.53;5018372;28;20530;-75
2023/05/23 07:08:47;;;;;;;22.33;16.02;;;;;;;14.46;100.00;95047.38;5002699;28;20120;-76
2023/05/23 07:11:13;;;;;;;19.10;15.77;;;;;;;14.49;100.00;94985.25;5018992;28;20445;-76
2023/05/23 07:13:38;;;;;;;17.58;15.85;;;;;;;14.44;100.00;94981.63;5019863;28;20037;-75
2023/05/23 07:16:04;;;;;;;17.92;15.85;;;;;;;14.46;100.00;94953.53;5020084;28;20032;-76
2023/05/23 07:18:30;;;;;;;20.30;17.92;;;;;;;14.67;100.00;94966.47;5018643;28;20021;-76
2023/05/23 07:20:55;;;;;;;20.88;17.13;;;;;;;14.35;100.00;94972.34;5014397;28;20025;-76
2023/05/23 07:23:22;;;;;;;19.10;17.08;;;;;;;14.46;100.00;95005.66;5002834;28;20400;-75
2023/05/23 07:25:47;;;;;;;20.25;17.30;;;;;;;14.52;100.00;95025.75;5014643;28;20044;-75
2023/05/23 07:28:13;;;;;;;21.27;16.15;;;;;;;14.67;100.00;95016.78;5016981;28;20021;-75
2023/05/23 07:30:38;;;;;;;20.95;16.85;;;;;;;14.74;100.00;95006.38;5018715;28;20018;-74
2023/05/23 07:33:04;;;;;;;19.88;15.85;;;;;;;15.02;100.00;94975.81;5018163;28;20713;-75
2023/05/23 07:35:29;;;;;;;16.23;14.50;;;;;;;15.01;100.00;94929.84;5018825;28;20091;-75
2023/05/23 07:37:55;;;;;;;17.80;16.10;;;;;;;15.05;100.00;94891.94;5019191;28;20053;-74
2023/05/23 07:40:21;;;;;;;17.02;15.38;;;;;;;15.32;100.00;94884.91;5003980;28;20079;-75
2023/05/23 07:42:47;;;;;;;25.33;18.30;;;;;;;15.36;100.00;94846.16;5024064;28;20045;-75
2023/05/23 07:45:12;;;;;;;19.13;17.17;;;;;;;15.43;100.00;94828.69;5022021;28;20529;-75
2023/05/23 07:47:38;;;;;;;15.82;14.18;;;;;;;15.88;100.00;94812.13;5024319;28;20068;-74
2023/05/23 07:50:04;;;;;;;17.48;15.60;;;;;;;16.37;100.00;94805.50;5022164;28;20487;-74
2023/05/23 07:52:30;;;;;;;16.17;14.60;;;;;;;16.46;100.00;94762.41;5023818;28;20049;-74
2023/05/23 07:54:56;;;;;;;16.23;14.52;;;;;;;16.67;100.00;94773.31;5023525;28;20104;-74
2023/05/23 07:57:23;;;;;;;17.20;15.40;;;;;;;17.36;100.00;94748.78;5022599;28;20105;-74
2023/05/23 07:59:49;;;;;;;13.35;12.35;;;;;;;16.73;100.00;94740.28;5023658;28;20344;-74
2023/05/23 08:02:14;;;;;;;15.13;13.73;;;;;;;16.42;100.00;94796.00;5007071;28;20025;-74
2023/05/23 08:04:40;;;;;;;16.15;14.60;;;;;;;16.86;100.00;94774.19;5019627;28;20037;-75
2023/05/23 08:07:07;;;;;;;15.77;14.35;;;;;;;17.07;100.00;94737.19;5020725;28;20021;-74
2023/05/23 08:09:33;;;;;;;16.88;14.60;;;;;;;16.67;100.00;94731.47;5023592;28;20156;-74
2023/05/23 08:11:58;;;;;;;15.05;13.57;;;;;;;16.98;100.00;94729.81;5022171;28;20494;-74
2023/05/23 08:14:24;;;;;;;12.90;11.88;;;;;;;18.46;100.00;94692.56;5022861;28;20065;-73
2023/05/23 08:16:49;;;;;;;16.63;13.52;;;;;;;18.30;100.00;94683.50;5023495;28;20486;-74
2023/05/23 08:19:15;;;;;;;12.57;11.48;;;;;;;19.02;100.00;94667.63;5021695;28;20445;-73
2023/05/23 08:21:41;;;;;;;13.52;12.02;;;;;;;19.33;100.00;94686.41;5006179;28;20063;-74
2023/05/23 08:24:06;;;;;;;13.73;12.25;;;;;;;19.35;100.00;94683.56;5021614;28;20026;-73
2023/05/23 08:26:34;;;;;;;13.18;12.00;;;;;;;19.11;100.00;94677.53;5023770;28;20414;-74
2023/05/23 08:29:03;;;;;;;13.48;12.27;;;;;;;18.43;100.00;94677.25;5021418;28;20026;-74
2023/05/23 08:31:29;;;;;;;13.25;12.15;;;;;;;18.81;100.00;94692.63;5023217;28;20025;-73
2023/05/23 08:33:55;;;;;;;14.20;12.80;;;;;;;18.91;100.00;94682.38;5022669;28;20080;-73
2023/05/23 08:36:21;;;;;;;12.90;11.57;;;;;;;19.18;100.00;94683.47;5021734;28;20022;-73
2023/05/23 08:38:46;;;;;;;13.02;12.02;;;;;;;18.83;100.00;94657.25;5023364;28;20037;-73
2023/05/23 08:41:18;;;;;;;13.43;11.95;;;;;;;18.95;100.00;94665.09;5021043;28;20108;-73
2023/05/23 08:43:43;;;;;;;12.25;11.25;;;;;;;19.22;100.00;94666.25;5022971;28;20030;-73
2023/05/23 08:46:09;;;;;;;11.65;10.85;;;;;;;19.69;100.00;94658.25;5021454;28;20144;-72
2023/05/23 08:48:37;;;;;;;11.63;10.68;;;;;;;19.66;100.00;94662.16;5022641;28;20403;-73
2023/05/23 08:51:03;;;;;;;11.55;10.25;;;;;;;19.79;100.00;94645.31;5021448;28;20029;-74
2023/05/23 08:53:30;;;;;;;11.32;10.38;;;;;;;19.80;100.00;94655.59;5018253;28;20491;-72
2023/05/23 08:56:01;;;;;;;10.60;9.77;;;;;;;19.93;100.00;94657.16;5013092;28;20064;-74
2023/05/23 08:58:30;;;;;;;9.60;8.90;;;;;;;20.17;100.00;94650.72;5020692;28;20061;-73
2023/05/23 09:00:57;;;;;;;10.13;9.35;;;;;;;20.26;100.00;94649.31;5022606;28;20079;-73
2023/05/23 09:03:25;;;;;;;10.07;9.13;;;;;;;20.37;100.00;94645.84;5002820;28;20025;-73
2023/05/23 09:05:53;;;;;;;9.73;8.90;;;;;;;20.13;100.00;94627.78;5022543;28;20022;-73
2023/05/23 09:08:18;;;;;;;11.60;10.60;;;;;;;20.15;100.00;94634.41;5021749;28;20033;-73
2023/05/23 09:10:44;;;;;;;10.82;10.02;;;;;;;20.49;100.00;94624.69;5021364;28;20041;-73
2023/05/23 09:13:09;;;;;;;10.25;9.45;;;;;;;20.21;100.00;94619.50;5022359;28;20025;-73
2023/05/23 09:15:35;;;;;;;10.32;9.55;;;;;;;20.54;100.00;94630.06;5020686;28;20048;-72
2023/05/23 09:18:00;;;;;;;8.98;8.18;;;;;;;20.94;100.00;94625.38;5022522;28;20176;-73
2023/05/23 09:20:27;;;;;;;8.88;7.95;;;;;;;21.12;100.00;94623.53;5020187;28;20025;-73
2023/05/23 09:22:54;;;;;;;8.13;7.40;;;;;;;20.99;100.00;94619.41;5022512;28;20033;-73
2023/05/23 09:25:19;;;;;;;9.32;8.52;;;;;;;20.97;100.00;94618.81;5020698;28;20036;-73
2023/05/23 09:27:45;;;;;;;7.70;7.15;;;;;;;21.02;100.00;94608.38;5021689;28;20454;-73
2023/05/23 09:30:11;;;;;;;11.65;7.55;;;;;;;21.34;100.00;94611.97;5021873;28;20026;-73
2023/05/23 09:32:37;;;;;;;8.80;5.93;;;;;;;21.43;100.00;94605.22;5020718;28;20045;-73
2023/05/23 09:35:05;;;;;;;6.15;5.53;;;;;;;21.88;100.00;94599.63;5022337;28;20064;-74
2023/05/23 09:37:44;;;;;;;5.35;4.80;;;;;;;22.11;100.00;94597.75;5019600;28;20121;-73
2023/05/23 09:40:14;;;;;;;4.93;4.10;;;;;;;21.87;100.00;94589.31;5021876;28;20084;-73
2023/05/23 09:42:44;;;;;;;4.60;4.20;;;;;;;21.80;100.00;94586.13;5020418;28;20524;-75
2023/05/23 09:45:14;;;;;;;4.80;4.38;;;;;;;21.83;100.00;94580.34;5021131;28;20049;-84
2023/05/23 09:47:52;;;;;;;4.93;4.50;;;;;;;21.96;99.93;94580.75;5021958;28;20113;-75
2023/05/23 09:50:18;;;;;;;8.80;5.00;;;;;;;22.22;100.00;94573.06;5019841;28;20064;-75
2023/05/23 09:52:43;;;;;;;4.82;3.75;;;;;;;22.44;97.79;94566.63;5021928;28;20057;-74
2023/05/23 09:55:09;;;;;;;8.73;4.57;;;;;;;22.39;98.46;94571.06;5019646;28;20402;-73
2023/05/23 09:57:37;;;;;;;4.35;3.95;;;;;;;22.28;93.47;94564.94;5021432;28;20025;-74
2023/05/23 10:00:05;;;;;;;5.20;4.70;;;;;;;22.36;97.53;94559.19;5002579;28;20491;-75
2023/05/23 10:02:52;;;;;;;5.47;4.97;;;;;;;22.64;100.00;94563.31;5019418;28;20105;-76
2023/05/23 10:05:29;;;;;;;4.95;4.55;;;;;;;22.81;98.40;94555.25;5020729;28;20506;-74
2023/05/23 10:07:58;;;;;;;5.82;4.18;;;;;;;22.67;89.46;94559.44;5009169;28;20030;-73
2023/05/23 10:10:24;;;;;;;6.47;4.68;;;;;;;22.69;92.61;94549.38;5012033;28;20034;-75
2023/05/23 10:12:54;;;;;;;6.53;4.57;;;;;;;22.59;95.61;94550.91;4992125;28;20131;-73
2023/05/23 10:15:22;;;;;;;5.72;4.20;;;;;;;22.57;90.97;94537.13;4990111;28;20025;-73
2023/05/23 10:17:51;;;;;;;3.03;2.72;;;;;;;22.46;82.88;94540.78;4988965;28;20522;-75
2023/05/23 10:20:18;;;;;;;3.28;3.00;;;;;;;22.49;83.32;94545.53;5009711;28;20041;-75
2023/05/23 10:22:43;;;;;;;5.50;3.15;;;;;;;22.25;73.27;94538.25;4989423;28;20735;-75
2023/05/23 10:25:09;;;;;;;3.83;3.00;;;;;;;22.38;78.25;94535.94;5010068;28;20030;-74
2023/05/23 10:27:36;;;;;;;3.70;3.40;;;;;;;22.48;79.21;94530.75;5007791;28;20018;-75
2023/05/23 10:30:02;;;;;;;5.72;3.22;;;;;;;22.59;81.11;94537.69;5009859;28;20490;-75
2023/05/23 10:32:28;;;;;;;5.82;3.30;;;;;;;22.52;70.97;94526.56;4990914;28;20667;-81
2023/05/23 10:35:23;;;;;;;3.60;3.30;;;;;;;22.84;75.51;94531.78;4988172;28;20040;-75
2023/05/23 10:38:06;;;;;;;8.68;3.45;;;;;;;22.91;67.08;94527.06;5007872;28;20045;-74
2023/05/23 10:40:53;;;;;;;3.65;3.35;;;;;;;22.79;67.27;94523.03;5010596;28;20051;-75
2023/05/23 10:43:25;;;;;;;3.90;3.50;;;;;;;22.77;76.11;94525.13;5017406;28;20025;-76
2023/05/23 10:45:51;;;;;;;3.65;3.33;;;;;;;22.81;77.62;94518.28;5001227;28;20061;-76
2023/05/23 10:48:41;;;;;;;7.60;3.35;;;;;;;22.51;68.57;94516.22;5019566;28;20808;-76
2023/05/23 10:51:07;;;;;;;4.57;3.30;;;;;;;22.79;71.11;94512.47;5015271;28;20021;-76
2023/05/23 10:53:56;;;;;;;5.88;3.53;;;;;;;22.54;68.47;94513.88;5017333;28;20444;-76
2023/05/23 10:56:22;;;;;;;4.88;3.40;;;;;;;22.85;67.63;94509.59;4991256;28;20128;-76
2023/05/23 10:58:55;;;;;;;3.30;3.00;;;;;;;22.77;61.23;94504.78;5017023;28;20080;-75
2023/05/23 11:01:21;;;;;;;3.60;3.10;;;;;;;22.87;63.47;94511.97;5017057;28;20140;-75
2023/05/23 11:03:46;;;;;;;3.63;3.33;;;;;;;22.95;62.24;94509.66;5017609;28;20617;-74
2023/05/23 11:06:37;;;;;;;3.80;3.50;;;;;;;22.58;66.50;94507.03;5013305;28;20030;-76
2023/05/23 11:09:05;;;;;;;3.72;3.28;;;;;;;22.52;56.06;94502.00;4999776;28;20071;-77
2023/05/23 11:11:54;;;;;;;6.80;3.40;;;;;;;22.50;57.95;94499.63;5009825;28;20042;-75
2023/05/23 11:14:32;;;;;;;4.70;3.25;;;;;;;22.12;54.69;94497.25;4997800;28;20065;-74
2023/05/23 11:17:17;;;;;;;3.78;2.97;;;;;;;22.42;60.29;94500.09;5005607;28;20046;-78
2023/05/23 11:20:17;;;;;;;5.20;2.92;;;;;;;22.44;58.93;94487.41;5015301;28;20049;-75
2023/05/23 11:22:52;;;;;;;4.88;3.00;;;;;;;22.53;50.19;94491.19;4950259;28;20053;-75
2023/05/23 11:25:19;;;;;;;5.05;2.63;;;;;;;22.68;50.95;94493.13;5018343;28;21057;-74
2023/05/23 11:27:45;;;;;;;4.75;2.70;;;;;;;23.00;54.97;94485.06;5012708;28;20045;-75
2023/05/23 11:30:16;;;;;;;3.80;2.90;;;;;;;22.77;51.48;94481.03;5017687;28;20549;-74
2023/05/23 11:32:49;;;;;;;3.30;2.95;;;;;;;22.25;47.01;94474.91;5012425;28;20108;-74
2023/05/23 11:35:16;;;;;;;4.03;3.10;;;;;;;22.67;52.55;94483.63;5018490;28;20137;-77
2023/05/23 11:37:42;;;;;;;4.32;3.13;;;;;;;22.82;52.55;94480.25;5000740;28;20116;-75
2023/05/23 11:40:44;;;;;;;3.40;3.10;;;;;;;23.08;52.66;94466.09;5019876;28;20026;-76
2023/05/23 11:43:14;;;;;;;3.00;2.70;;;;;;;22.72;51.20;94481.00;4915805;29;20469;-76
2023/05/23 11:45:40;;;;;;;3.90;2.67;;;;;;;22.79;47.15;94472.84;4990928;28;20170;-75
2023/05/23 11:48:10;;;;;;;5.47;3.08;;;;;;;22.98;49.64;94476.63;5013766;28;20040;-79
2023/05/23 11:50:50;;;;;;;4.95;2.92;;;;;;;22.62;50.48;94477.50;5019131;28;20025;-78
2023/05/23 11:53:19;;;;;;;3.10;2.90;;;;;;;22.72;46.60;94477.56;5019784;28;20585;-74
2023/05/23 11:55:49;;;;;;;5.55;3.10;;;;;;;22.90;49.84;94471.81;5017238;28;20379;-74
2023/05/23 11:58:14;;;;;;;4.45;2.92;;;;;;;23.13;50.48;94468.75;4995678;28;20490;-75
2023/05/23 12:00:44;;;;;;;4.45;3.00;;;;;;;23.10;50.34;94456.84;4939970;28;20071;-82
2023/05/23 12:03:10;;;;;;;3.35;3.05;;;;;;;23.05;47.11;94472.66;4941812;29;20476;-74
2023/05/23 12:05:36;;;;;;;4.07;3.15;;;;;;;23.30;49.49;94466.69;4933278;29;20707;-75
2023/05/23 12:08:01;;;;;;;3.67;3.20;;;;;;;23.22;47.05;94471.66;4940380;29;20046;-75
2023/05/23 12:10:28;;;;;;;4.80;3.25;;;;;;;23.19;44.28;94465.06;4941529;29;20114;-74
2023/05/23 12:12:54;;;;;;;3.83;2.80;;;;;;;23.41;50.27;94465.66;4939798;29;20513;-76
2023/05/23 12:15:24;;;;;;;4.60;3.45;;;;;;;23.13;42.47;94452.09;4924593;29;20038;-74
2023/05/23 12:17:52;;;;;;;3.13;2.83;;;;;;;23.02;43.35;94446.78;4933136;29;20038;-74
2023/05/23 12:20:18;;;;;;;3.17;2.87;;;;;;;23.36;49.51;94454.25;4941497;29;20043;-77
2023/05/23 12:22:44;;;;;;;3.42;2.58;;;;;;;23.11;46.16;94449.72;4940619;29;20449;-75
2023/05/23 12:25:10;;;;;;;3.25;2.95;;;;;;;23.33;45.61;94446.84;4941147;28;20071;-76
2023/05/23 12:27:37;;;;;;;7.05;3.00;;;;;;;23.59;48.28;94444.00;4944286;29;20058;-76
2023/05/23 12:30:14;;;;;;;3.20;2.92;;;;;;;23.14;47.10;94441.25;4943902;29;20039;-75
2023/05/23 12:32:40;;;;;;;3.55;2.90;;;;;;;23.29;49.41;94437.84;4945005;29;20078;-76
2023/05/23 12:35:15;;;;;;;4.30;2.70;;;;;;;23.25;52.36;94434.13;4943375;29;20039;-75
2023/05/23 12:37:47;;;;;;;2.95;2.70;;;;;;;23.17;46.02;94437.31;4940091;29;20035;-76
2023/05/23 12:40:13;;;;;;;4.80;3.20;;;;;;;23.25;49.32;94429.66;4919433;29;20030;-76
2023/05/23 12:42:51;;;;;;;3.67;2.88;;;;;;;23.08;48.52;94423.81;4944025;29;20027;-75
2023/05/23 12:45:21;;;;;;;3.73;2.87;;;;;;;23.12;52.62;94424.09;4939679;29;20030;-76
2023/05/23 12:47:47;;;;;;;4.45;2.72;;;;;;;23.01;51.16;94423.25;4936089;29;20071;-75
2023/05/23 12:50:12;;;;;;;6.85;3.13;;;;;;;22.95;50.55;94424.31;4945031;29;20027;-76
2023/05/23 12:52:39;;;;;;;3.30;3.00;;;;;;;22.79;45.88;94420.03;4943373;29;20437;-76
2023/05/23 12:55:05;;;;;;;2.85;2.65;;;;;;;23.12;48.15;94419.56;4944393;29;20039;-75
2023/05/23 12:57:34;;;;;;;7.03;3.10;;;;;;;23.02;49.80;94414.28;4944281;28;20038;-74
2023/05/23 12:59:59;;;;;;;6.03;2.90;;;;;;;23.28;49.25;94413.25;4962651;28;20042;-75
2023/05/23 13:02:26;;;;;;;4.93;2.80;;;;;;;23.17;48.17;94403.75;4964048;28;20034;-77
2023/05/23 13:04:52;;;;;;;3.85;3.20;;;;;;;22.72;50.58;94406.25;4962418;28;20432;-75
2023/05/23 13:07:17;;;;;;;3.78;3.10;;;;;;;22.30;53.27;94393.94;4963861;28;20023;-84
2023/05/23 13:09:43;;;;;;;2.88;2.50;;;;;;;22.46;50.14;94413.25;4962047;28;20058;-75
2023/05/23 13:12:08;;;;;;;2.83;2.63;;;;;;;22.85;47.34;94396.00;4963735;28;20069;-75
2023/05/23 13:14:34;;;;;;;6.00;3.15;;;;;;;22.82;47.48;94395.75;4962142;28;20461;-76
2023/05/23 13:16:59;;;;;;;6.28;3.08;;;;;;;22.78;50.88;94400.75;4963099;28;20023;-78
2023/05/23 13:19:25;;;;;;;4.53;2.78;;;;;;;22.75;46.74;94397.81;4964203;28;20576;-74
2023/05/23 13:21:50;;;;;;;5.05;2.75;;;;;;;22.95;46.81;94387.31;4962119;28;20061;-77
2023/05/23 13:24:16;;;;;;;6.20;3.30;;;;;;;22.93;48.06;94392.84;4963504;28;20035;-78
2023/05/23 13:26:42;;;;;;;2.92;2.60;;;;;;;22.80;47.47;94389.91;4961725;28;20019;-76
2023/05/23 13:29:07;;;;;;;3.45;3.15;;;;;;;22.89;46.02;94383.09;4963574;28;20038;-75
2023/05/23 13:31:33;;;;;;;2.92;2.72;;;;;;;23.12;47.73;94393.16;4961914;28;20019;-75
2023/05/23 13:33:58;;;;;;;3.25;2.88;;;;;;;23.05;47.59;94396.03;4963806;28;20034;-75
2023/05/23 13:36:24;;;;;;;7.68;3.00;;;;;;;23.00;44.54;94388.13;4962084;28;20023;-74
2023/05/23 13:38:50;;;;;;;3.38;2.78;;;;;;;23.20;46.91;94390.00;4962771;28;20058;-75
2023/05/23 13:41:16;;;;;;;3.40;3.10;;;;;;;23.17;48.89;94389.72;4962947;28;20045;-73
2023/05/23 13:43:41;;;;;;;3.90;3.03;;;;;;;22.92;49.85;94393.94;4961714;28;20105;-75
2023/05/23 13:46:07;;;;;;;6.85;2.58;;;;;;;23.03;49.25;94392.88;4961590;28;20046;-75